Time;durP1;ratioP1;P1;durP2;ratioP2;P2;SDS_P1;SDS_P2;PMS_P1;PMS_P2;Temp;Humidity;BMP_temperature;BMP_pressure;BME280_temperature;BME280_humidity;BME280_pressure;Samples;Min_cycle;Max_cycle;Signal;HPM_P1;HPM_P2
2022/05/17 00:01:53;;;;;;;;;;;;;;;19.28;60.25;99720.75;4348088;33;19979;-84
2022/05/17 00:04:19;;;;;;;;;;;;;;;19.27;60.25;99721.69;4348142;33;20022;-84
2022/05/17 00:06:45;;;;;;;;;;;;;;;19.34;60.25;99720.31;4334485;33;19982;-86
2022/05/17 00:09:10;;;;;;;;;;;;;;;19.39;60.26;99717.38;4334308;33;20034;-86
2022/05/17 00:11:36;;;;;;;;;;;;;;;19.26;60.25;99712.94;4334036;33;19976;-85
2022/05/17 00:14:01;;;;;;;;;;;;;;;19.13;60.23;99701.50;4347862;33;19998;-85
2022/05/17 00:16:26;;;;;;;;;;;;;;;19.22;60.24;99705.34;4334481;33;19991;-87
2022/05/17 00:18:51;;;;;;;;;;;;;;;19.22;60.25;99697.44;4334421;33;20003;-88
2022/05/17 00:21:17;;;;;;;;;;;;;;;19.24;60.25;99696.37;4334306;33;19999;-85
2022/05/17 00:23:42;;;;;;;;;;;;;;;19.27;60.25;99698.78;4347389;33;19983;-84
2022/05/17 00:26:07;;;;;;;;;;;;;;;19.28;60.24;99694.34;4334285;33;19995;-87
2022/05/17 00:28:33;;;;;;;;;;;;;;;18.81;60.22;99702.84;4334400;33;19983;-86
2022/05/17 00:30:58;;;;;;;;;;;;;;;18.73;60.21;99699.88;4334469;33;20047;-88
2022/05/17 00:33:23;;;;;;;;;;;;;;;18.71;60.22;99694.72;4334435;33;20002;-88
2022/05/17 00:35:49;;;;;;;;;;;;;;;18.81;60.22;99693.16;4333945;33;19964;-88
2022/05/17 00:38:14;;;;;;;;;;;;;;;18.93;60.23;99688.84;4334268;33;20344;-89
2022/05/17 00:40:40;;;;;;;;;;;;;;;18.97;60.22;99691.19;4334384;33;20002;-89
2022/05/17 00:43:06;;;;;;;;;;;;;;;18.84;60.23;99694.72;4334386;33;20018;-89
2022/05/17 00:45:31;;;;;;;;;;;;;;;18.86;60.23;99693.69;4322071;33;20019;-88
2022/05/17 00:48:04;;;;;;;;;;;;;;;18.83;60.22;99693.03;4334409;33;20019;-89
2022/05/17 00:50:37;;;;;;;;;;;;;;;18.95;60.23;99693.06;4335540;33;19991;-88
2022/05/17 00:53:07;;;;;;;;;;;;;;;18.93;60.23;99686.22;4322081;33;20652;-87
2022/05/17 00:55:34;;;;;;;;;;;;;;;18.86;60.22;99691.03;4334272;33;19979;-85
2022/05/17 00:58:08;;;;;;;;;;;;;;;18.91;60.22;99681.03;4347948;33;19995;-85
2022/05/17 01:00:35;;;;;;;;;;;;;;;18.80;60.22;99691.47;4347787;33;20051;-84
2022/05/17 01:03:07;;;;;;;;;;;;;;;18.89;60.22;99682.91;4334107;33;20341;-85
2022/05/17 01:05:35;;;;;;;;;;;;;;;18.91;60.22;99682.81;4347707;33;20035;-85
2022/05/17 01:08:00;;;;;;;;;;;;;;;18.84;60.23;99673.63;4334222;33;20000;-83
2022/05/17 01:10:26;;;;;;;;;;;;;;;18.98;60.23;99663.84;4334015;33;20363;-83
2022/05/17 01:15:35;;;;;;;;;;;;;;;19.02;60.23;99672.41;4336444;33;20035;-83
2022/05/17 01:18:01;;;;;;;;;;;;;;;18.99;60.22;99670.81;4347673;33;19980;-82
2022/05/17 01:20:26;;;;;;;;;;;;;;;19.06;60.23;99673.03;4347728;33;20023;-82
2022/05/17 01:22:51;;;;;;;;;;;;;;;18.95;60.23;99669.34;4347032;33;20249;-84
2022/05/17 01:25:17;;;;;;;;;;;;;;;19.11;60.24;99663.00;4333832;33;20095;-82
2022/05/17 01:27:43;;;;;;;;;;;;;;;19.24;60.25;99664.69;4347304;33;19994;-83
2022/05/17 01:30:19;;;;;;;;;;;;;;;19.28;60.25;99667.97;4333871;33;19984;-84
2022/05/17 01:32:44;;;;;;;;;;;;;;;19.20;60.24;99668.50;4333854;33;20010;-82
2022/05/17 01:35:09;;;;;;;;;;;;;;;19.16;60.24;99658.25;4333818;33;19976;-82
2022/05/17 01:37:34;;;;;;;;;;;;;;;19.00;60.22;99666.37;4333223;33;21701;-82
2022/05/17 01:39:59;;;;;;;;;;;;;;;18.91;60.22;99669.62;4346842;33;20042;-83
2022/05/17 01:42:25;;;;;;;;;;;;;;;19.04;60.23;99661.75;4346895;33;20595;-84
2022/05/17 01:44:50;;;;;;;;;;;;;;;19.17;60.24;99666.09;4333387;33;20348;-83
2022/05/17 01:47:15;;;;;;;;;;;;;;;19.22;60.25;99658.69;4334514;33;20011;-83
2022/05/17 01:49:40;;;;;;;;;;;;;;;19.01;60.23;99652.25;4335334;33;20000;-83
2022/05/17 01:52:06;;;;;;;;;;;;;;;19.11;60.23;99655.94;4348739;33;19991;-83
2022/05/17 01:54:31;;;;;;;;;;;;;;;19.21;60.24;99651.72;4349065;33;19984;-83
2022/05/17 01:56:56;;;;;;;;;;;;;;;19.13;60.23;99645.25;4335736;33;20074;-83
2022/05/17 01:59:22;;;;;;;;;;;;;;;19.18;60.24;99656.38;4349153;33;20246;-83
2022/05/17 02:01:47;;;;;;;;;;;;;;;19.30;60.24;99651.06;4348910;33;19992;-84
2022/05/17 02:04:23;;;;;;;;;;;;;;;18.99;60.22;99656.78;4348947;33;20306;-83
2022/05/17 02:06:48;;;;;;;;;;;;;;;19.10;60.23;99654.25;4348879;33;19999;-84
2022/05/17 02:09:14;;;;;;;;;;;;;;;19.23;60.24;99660.38;4349095;33;19987;-82
2022/05/17 02:11:40;;;;;;;;;;;;;;;19.37;60.24;99656.75;4348340;33;19995;-83
2022/05/17 02:14:06;;;;;;;;;;;;;;;19.31;60.25;99646.62;4348992;33;20325;-83
2022/05/17 02:16:38;;;;;;;;;;;;;;;19.17;60.24;99649.41;4348990;33;20006;-84
2022/05/17 02:19:04;;;;;;;;;;;;;;;19.28;60.24;99647.69;4335001;33;19991;-86
2022/05/17 02:21:29;;;;;;;;;;;;;;;19.33;60.25;99647.38;4335483;33;20006;-86
2022/05/17 02:23:54;;;;;;;;;;;;;;;19.22;60.25;99632.31;4347890;33;20009;-87
2022/05/17 02:26:19;;;;;;;;;;;;;;;19.43;60.25;99634.41;4335370;33;20043;-87
2022/05/17 02:28:45;;;;;;;;;;;;;;;19.60;60.26;99636.69;4335333;33;20017;-87
2022/05/17 02:31:11;;;;;;;;;;;;;;;19.55;60.26;99639.66;4335469;33;20011;-86
2022/05/17 02:33:36;;;;;;;;;;;;;;;19.36;60.25;99646.31;4335333;33;20046;-87
2022/05/17 02:36:02;;;;;;;;;;;;;;;19.41;60.25;99645.06;4336337;33;19999;-87
2022/05/17 02:38:27;;;;;;;;;;;;;;;19.32;60.25;99643.03;4324197;33;20053;-87
2022/05/17 02:40:52;;;;;;;;;;;;;;;19.36;60.24;99647.16;4322944;33;20249;-86
2022/05/17 02:43:18;;;;;;;;;;;;;;;19.41;60.25;99647.69;4335154;33;20010;-86
2022/05/17 02:45:43;;;;;;;;;;;;;;;19.61;60.25;99656.88;4335331;33;19999;-86
2022/05/17 02:48:08;;;;;;;;;;;;;;;19.73;60.27;99653.38;4335403;33;19987;-87
2022/05/17 02:50:33;;;;;;;;;;;;;;;19.75;60.27;99650.63;4335150;33;20006;-87
2022/05/17 02:52:58;;;;;;;;;;;;;;;19.70;60.27;99653.59;4348993;33;20010;-88
2022/05/17 02:55:24;;;;;;;;;;;;;;;19.61;60.25;99654.22;4335158;33;20019;-86
2022/05/17 02:57:49;;;;;;;;;;;;;;;19.37;60.25;99656.75;4335372;33;19987;-87
2022/05/17 03:00:14;;;;;;;;;;;;;;;19.61;60.25;99659.50;4335449;33;20328;-87
2022/05/17 03:02:40;;;;;;;;;;;;;;;19.55;60.26;99658.16;4335546;33;20046;-87
2022/05/17 03:05:05;;;;;;;;;;;;;;;19.70;60.27;99669.44;4335606;33;20258;-86
2022/05/17 03:07:31;;;;;;;;;;;;;;;19.93;60.28;99673.94;4336242;33;20011;-86
2022/05/17 03:09:56;;;;;;;;;;;;;;;19.94;60.28;99672.13;4323482;33;19991;-87
2022/05/17 03:12:21;;;;;;;;;;;;;;;19.72;60.27;99677.25;4336371;33;20010;-87
2022/05/17 03:14:47;;;;;;;;;;;;;;;19.75;60.26;99674.38;4335267;33;20002;-87
2022/05/17 03:17:13;;;;;;;;;;;;;;;19.72;60.27;99672.81;4335338;33;20002;-86
2022/05/17 03:19:38;;;;;;;;;;;;;;;19.74;60.26;99676.19;4335164;33;19995;-87
2022/05/17 03:22:04;;;;;;;;;;;;;;;19.93;60.28;99670.44;4322825;33;19988;-87
2022/05/17 03:24:29;;;;;;;;;;;;;;;20.13;60.28;99674.28;4348504;33;19971;-87
2022/05/17 03:26:54;;;;;;;;;;;;;;;20.07;60.28;99672.91;4348411;33;20241;-86
2022/05/17 03:29:20;;;;;;;;;;;;;;;19.85;60.28;99676.25;4322581;33;19988;-87
2022/05/17 03:31:45;;;;;;;;;;;;;;;19.89;60.27;99687.47;4334856;33;19979;-87
2022/05/17 03:34:10;;;;;;;;;;;;;;;19.99;60.28;99680.56;4334896;33;20051;-87
2022/05/17 03:36:35;;;;;;;;;;;;;;;20.22;60.29;99674.47;4335023;33;20021;-86
2022/05/17 03:39:01;;;;;;;;;;;;;;;20.07;60.28;99677.34;4334828;33;20030;-86
2022/05/17 03:41:26;;;;;;;;;;;;;;;20.22;60.29;99676.25;4334907;33;20023;-87
2022/05/17 03:43:51;;;;;;;;;;;;;;;20.34;60.30;99682.44;4322107;33;22674;-87
2022/05/17 03:46:16;;;;;;;;;;;;;;;20.31;60.29;99677.38;4322654;33;19995;-85
2022/05/17 03:48:42;;;;;;;;;;;;;;;20.32;60.29;99673.78;4334429;33;19994;-86
2022/05/17 03:51:11;;;;;;;;;;;;;;;20.58;60.31;99677.16;4334662;33;20095;-85
2022/05/17 03:53:36;;;;;;;;;;;;;;;20.51;60.30;99676.78;4334764;33;19987;-86
2022/05/17 03:56:03;;;;;;;;;;;;;;;20.70;60.32;99666.53;4348099;33;20026;-85
2022/05/17 03:58:28;;;;;;;;;;;;;;;20.65;60.31;99665.19;4334821;33;20313;-86
2022/05/17 04:00:53;;;;;;;;;;;;;;;20.63;60.32;99667.09;4334525;33;20025;-84
2022/05/17 04:03:18;;;;;;;;;;;;;;;20.83;60.32;99656.72;4334652;33;19992;-84
2022/05/17 04:05:44;;;;;;;;;;;;;;;21.07;60.33;99659.28;4348367;33;19991;-85
2022/05/17 04:08:09;;;;;;;;;;;;;;;21.31;60.34;99656.59;4334558;33;19988;-86
2022/05/17 04:10:34;;;;;;;;;;;;;;;21.19;60.34;99656.66;4347387;33;19991;-85
2022/05/17 04:12:59;;;;;;;;;;;;;;;20.97;60.33;99660.09;4334588;33;20047;-85
2022/05/17 04:15:24;;;;;;;;;;;;;;;20.86;60.33;99665.37;4334293;33;20341;-86
2022/05/17 04:17:51;;;;;;;;;;;;;;;20.90;60.32;99661.53;4322182;33;20576;-85
2022/05/17 04:20:16;;;;;;;;;;;;;;;20.97;60.33;99655.66;4334891;33;19983;-85
2022/05/17 04:22:45;;;;;;;;;;;;;;;21.17;60.33;99664.72;4334652;33;20002;-85
2022/05/17 04:25:11;;;;;;;;;;;;;;;21.22;60.34;99662.53;4348248;33;20010;-84
2022/05/17 04:27:36;;;;;;;;;;;;;;;21.27;60.35;99659.56;4334730;33;19997;-84
2022/05/17 04:30:01;;;;;;;;;;;;;;;21.45;60.35;99652.84;4334808;33;20003;-84
2022/05/17 04:32:26;;;;;;;;;;;;;;;21.45;60.36;99658.97;4334321;33;19980;-87
2022/05/17 04:34:52;;;;;;;;;;;;;;;21.62;60.36;99659.47;4334434;33;20363;-85
2022/05/17 04:37:17;;;;;;;;;;;;;;;21.76;60.37;99657.37;4334296;33;20013;-86
2022/05/17 04:39:42;;;;;;;;;;;;;;;21.86;60.38;99654.03;4334382;33;19975;-86
2022/05/17 04:42:08;;;;;;;;;;;;;;;21.67;60.36;99658.13;4347738;33;19995;-86
2022/05/17 04:44:33;;;;;;;;;;;;;;;21.82;60.38;99644.63;4321959;33;19992;-86
2022/05/17 04:46:58;;;;;;;;;;;;;;;21.73;60.37;99649.69;4347795;33;19994;-87
2022/05/17 04:49:23;;;;;;;;;;;;;;;21.66;60.36;99653.81;4348012;33;20002;-86
2022/05/17 04:51:52;;;;;;;;;;;;;;;21.53;60.36;99649.59;4347667;33;20302;-86
2022/05/17 04:54:17;;;;;;;;;;;;;;;21.48;60.36;99652.59;4334330;33;20381;-86
2022/05/17 04:56:43;;;;;;;;;;;;;;;21.37;60.35;99661.41;4334444;33;19991;-86
2022/05/17 04:59:08;;;;;;;;;;;;;;;21.33;60.35;99665.25;4347923;33;20002;-86
2022/05/17 05:01:34;;;;;;;;;;;;;;;21.38;60.35;99662.25;4334652;33;20035;-85
2022/05/17 05:03:59;;;;;;;;;;;;;;;21.57;60.37;99659.84;4334424;33;20010;-86
2022/05/17 05:06:27;;;;;;;;;;;;;;;21.45;60.36;99661.62;4347877;33;19993;-88
2022/05/17 05:08:52;;;;;;;;;;;;;;;21.68;60.37;99661.62;4335092;33;19987;-86
2022/05/17 05:11:17;;;;;;;;;;;;;;;21.64;60.37;99662.84;4334317;33;19995;-86
2022/05/17 05:13:43;;;;;;;;;;;;;;;21.66;60.37;99659.09;4347830;33;19979;-86
2022/05/17 05:16:09;;;;;;;;;;;;;;;21.83;60.38;99663.06;4334264;33;19987;-86
2022/05/17 05:18:34;;;;;;;;;;;;;;;22.01;60.38;99656.28;4334119;33;20302;-87
2022/05/17 05:21:05;;;;;;;;;;;;;;;22.21;60.40;99664.44;4346467;33;19987;-86
2022/05/17 05:23:31;;;;;;;;;;;;;;;22.26;60.40;99662.28;4347520;33;20039;-86
2022/05/17 05:25:59;;;;;;;;;;;;;;;22.26;60.40;99662.28;4347738;33;19975;-86
2022/05/17 05:28:24;;;;;;;;;;;;;;;22.41;60.41;99666.31;4322440;33;20005;-87
2022/05/17 05:30:50;;;;;;;;;;;;;;;22.46;60.41;99665.94;4333709;33;21235;-86
2022/05/17 05:33:15;;;;;;;;;;;;;;;22.50;60.41;99662.06;4333652;33;20531;-87
2022/05/17 05:35:40;;;;;;;;;;;;;;;22.53;60.41;99662.66;4333903;33;20092;-87
2022/05/17 05:38:05;;;;;;;;;;;;;;;22.61;60.42;99656.72;4334029;33;20046;-87
2022/05/17 05:40:31;;;;;;;;;;;;;;;22.62;60.42;99659.22;4347279;33;20043;-88
2022/05/17 05:42:57;;;;;;;;;;;;;;;22.72;60.42;99658.47;4347470;33;20039;-87
2022/05/17 05:45:22;;;;;;;;;;;;;;;22.53;60.41;99662.66;4333944;33;19994;-87
2022/05/17 05:47:47;;;;;;;;;;;;;;;22.69;60.42;99662.22;4333881;33;19979;-87
2022/05/17 05:50:12;;;;;;;;;;;;;;;22.71;60.42;99656.78;4333891;33;19992;-87
2022/05/17 05:52:38;;;;;;;;;;;;;;;22.71;60.42;99649.66;4347045;33;20285;-88
2022/05/17 05:55:03;;;;;;;;;;;;;;;22.86;60.42;99653.72;4347410;33;20059;-87
2022/05/17 05:57:29;;;;;;;;;;;;;;;22.76;60.42;99657.25;4347239;33;19981;-88
2022/05/17 05:59:54;;;;;;;;;;;;;;;22.96;60.43;99670.56;4346969;33;20010;-87
2022/05/17 06:02:19;;;;;;;;;;;;;;;22.96;60.44;99665.25;4333644;33;20043;-87
2022/05/17 06:04:44;;;;;;;;;;;;;;;22.89;60.43;99663.22;4333711;33;19987;-87
2022/05/17 06:07:10;;;;;;;;;;;;;;;22.98;60.44;99664.28;4345996;33;19994;-87
2022/05/17 06:09:35;;;;;;;;;;;;;;;22.94;60.43;99669.81;4347133;33;19998;-87
2022/05/17 06:12:00;;;;;;;;;;;;;;;22.96;60.44;99667.91;4347184;33;20019;-87
2022/05/17 06:14:27;;;;;;;;;;;;;;;23.17;60.44;99678.50;4347308;33;19995;-87
2022/05/17 06:16:52;;;;;;;;;;;;;;;23.06;60.45;99678.56;4347080;33;20375;-87
2022/05/17 06:19:17;;;;;;;;;;;;;;;23.13;60.44;99671.75;4333661;33;19988;-87
2022/05/17 06:21:42;;;;;;;;;;;;;;;23.18;60.44;99679.34;4333733;33;20075;-86
2022/05/17 06:24:08;;;;;;;;;;;;;;;23.35;60.46;99685.88;4347134;33;19999;-87
2022/05/17 06:26:33;;;;;;;;;;;;;;;23.45;60.46;99687.63;4333514;33;19979;-87
2022/05/17 06:28:59;;;;;;;;;;;;;;;23.35;60.46;99696.50;4346905;33;19988;-86
2022/05/17 06:31:24;;;;;;;;;;;;;;;23.37;60.46;99687.41;4333147;33;20042;-87
2022/05/17 06:33:50;;;;;;;;;;;;;;;23.41;60.45;99688.81;4334870;33;19984;-87
2022/05/17 06:36:15;;;;;;;;;;;;;;;23.42;60.46;99687.87;4323316;33;20335;-87
2022/05/17 06:38:40;;;;;;;;;;;;;;;23.44;60.46;99691.25;4335383;33;20357;-87
2022/05/17 06:41:06;;;;;;;;;;;;;;;23.70;60.47;99694.31;4335453;33;20000;-87
2022/05/17 06:43:34;;;;;;;;;;;;;;;23.88;60.48;99689.19;4348535;33;19999;-88
2022/05/17 06:45:59;;;;;;;;;;;;;;;23.86;60.49;99685.81;4323334;33;20318;-87
2022/05/17 06:48:24;;;;;;;;;;;;;;;23.95;60.49;99692.16;4349247;33;19994;-88
2022/05/17 06:50:50;;;;;;;;;;;;;;;24.03;60.48;99679.03;4335806;33;19992;-87
2022/05/17 06:53:15;;;;;;;;;;;;;;;24.28;60.51;99689.19;4349296;33;20345;-87
2022/05/17 06:55:41;;;;;;;;;;;;;;;24.64;60.52;99692.16;4335564;33;20022;-87
2022/05/17 06:58:06;;;;;;;;;;;;;;;24.85;60.54;99681.37;4335627;33;20014;-87
2022/05/17 07:00:32;;;;;;;;;;;;;;;25.13;60.54;99687.66;4335635;33;19996;-86
2022/05/17 07:02:57;;;;;;;;;;;;;;;25.01;60.54;99684.31;4354461;33;20464;-86
2022/05/17 07:05:22;;;;;;;;;;;;;;;24.91;60.54;99684.31;4327015;33;20018;-87
2022/05/17 07:07:48;;;;;;;;;;;;;;;24.67;60.52;99686.56;4348662;33;20364;-87
2022/05/17 07:13:09;;;;;;;;;;;;;;;24.60;60.52;99683.59;4349028;33;20043;-87
2022/05/17 07:15:38;;;;;;;;;;;;;;;24.41;60.50;99683.63;4349062;33;20309;-87
2022/05/17 07:18:03;;;;;;;;;;;;;;;24.24;60.50;99698.38;4335639;33;19987;-86
2022/05/17 07:20:29;;;;;;;;;;;;;;;24.29;60.51;99692.69;4335694;33;20018;-87
2022/05/17 07:22:54;;;;;;;;;;;;;;;24.06;60.50;99698.22;4335466;33;20006;-87
2022/05/17 07:25:19;;;;;;;;;;;;;;;24.23;60.50;99698.53;4335692;33;20007;-87
2022/05/17 07:27:45;;;;;;;;;;;;;;;24.02;60.49;99698.63;4335635;33;20014;-87
2022/05/17 07:30:10;;;;;;;;;;;;;;;24.08;60.50;99690.94;4335530;33;20377;-87
2022/05/17 07:32:36;;;;;;;;;;;;;;;24.28;60.51;99697.16;4348945;33;20002;-87
2022/05/17 07:35:01;;;;;;;;;;;;;;;24.31;60.51;99706.69;4348946;33;20051;-87
2022/05/17 07:37:26;;;;;;;;;;;;;;;24.01;60.49;99710.22;4334997;33;20242;-86
2022/05/17 07:39:52;;;;;;;;;;;;;;;24.00;60.49;99725.34;4335355;33;19996;-87
2022/05/17 07:42:17;;;;;;;;;;;;;;;23.95;60.49;99708.97;4335441;33;19994;-87
2022/05/17 07:44:42;;;;;;;;;;;;;;;23.99;60.49;99715.69;4347942;33;19969;-87
2022/05/17 07:47:07;;;;;;;;;;;;;;;24.07;60.50;99707.03;4335139;33;20003;-87
2022/05/17 07:49:33;;;;;;;;;;;;;;;24.03;60.48;99706.47;4348969;33;19980;-86
2022/05/17 07:51:58;;;;;;;;;;;;;;;23.85;60.48;99714.22;4348632;33;20003;-87
2022/05/17 07:54:23;;;;;;;;;;;;;;;23.78;60.48;99709.59;4335086;33;20012;-87
2022/05/17 07:56:48;;;;;;;;;;;;;;;23.55;60.46;99714.22;4335191;33;19984;-87
2022/05/17 07:59:13;;;;;;;;;;;;;;;23.50;60.46;99711.13;4335142;33;20027;-87
2022/05/17 08:01:39;;;;;;;;;;;;;;;23.62;60.47;99715.38;4335426;33;19981;-86
2022/05/17 08:04:04;;;;;;;;;;;;;;;23.88;60.48;99715.78;4348452;33;19971;-87
2022/05/17 08:06:29;;;;;;;;;;;;;;;23.80;60.48;99712.97;4323145;33;20364;-87
2022/05/17 08:08:55;;;;;;;;;;;;;;;23.89;60.49;99717.47;4348658;33;20030;-87
2022/05/17 08:11:20;;;;;;;;;;;;;;;23.80;60.48;99721.78;4348597;33;19991;-88
2022/05/17 08:13:46;;;;;;;;;;;;;;;23.68;60.48;99720.19;4334911;33;20088;-87
2022/05/17 08:16:11;;;;;;;;;;;;;;;23.53;60.47;99714.34;4335058;33;20034;-87
2022/05/17 08:18:36;;;;;;;;;;;;;;;23.56;60.47;99721.25;4322640;33;19987;-88
2022/05/17 08:21:01;;;;;;;;;;;;;;;23.68;60.47;99719.34;4334948;33;20000;-86
2022/05/17 08:23:27;;;;;;;;;;;;;;;23.35;60.46;99723.06;4348428;33;19971;-86
2022/05/17 08:28:36;;;;;;;;;;;;;;;23.32;60.45;99729.47;4348507;33;20042;-87
2022/05/17 08:31:01;;;;;;;;;;;;;;;23.23;60.45;99730.25;4348182;33;20019;-86
2022/05/17 08:33:26;;;;;;;;;;;;;;;23.17;60.44;99738.72;4334851;33;20007;-86
2022/05/17 08:35:52;;;;;;;;;;;;;;;22.95;60.44;99732.59;4334707;33;20004;-87
2022/05/17 08:38:19;;;;;;;;;;;;;;;22.87;60.43;99739.50;4348367;33;20255;-87
2022/05/17 08:41:00;;;;;;;;;;;;;;;22.72;60.43;99733.63;4334705;33;19980;-87
2022/05/17 08:43:28;;;;;;;;;;;;;;;22.94;60.43;99736.19;4334536;33;20393;-87
2022/05/17 08:46:03;;;;;;;;;;;;;;;22.96;60.44;99742.25;4348152;33;19993;-86
2022/05/17 08:48:30;;;;;;;;;;;;;;;23.02;60.44;99742.69;4322437;33;20609;-87
2022/05/17 08:50:55;;;;;;;;;;;;;;;23.11;60.45;99745.41;4334485;33;20336;-87
2022/05/17 08:53:21;;;;;;;;;;;;;;;23.22;60.45;99749.81;4348383;33;20025;-87
2022/05/17 08:55:46;;;;;;;;;;;;;;;23.18;60.45;99743.91;4334193;33;20006;-86
2022/05/17 08:58:25;;;;;;;;;;;;;;;23.19;60.45;99750.09;4340147;33;20007;-87
2022/05/17 09:00:55;;;;;;;;;;;;;;;23.02;60.43;99754.16;4341252;33;19967;-87
2022/05/17 09:03:38;;;;;;;;;;;;;;;22.61;60.42;99758.38;4334649;33;20285;-89
2022/05/17 09:06:04;;;;;;;;;;;;;;;22.05;60.39;99770.91;4334534;33;20063;-87
2022/05/17 09:08:34;;;;;;;;;;;;;;;21.85;60.38;99766.28;4348046;33;19994;-88
2022/05/17 09:11:01;;;;;;;;;;;;;;;21.68;60.37;99765.78;4334442;33;19972;-88
2022/05/17 09:13:27;;;;;;;;;;;;;;;21.75;60.37;99763.50;4347969;33;20325;-87
2022/05/17 09:15:53;;;;;;;;;;;;;;;21.74;60.37;99767.09;4334348;33;20002;-88
2022/05/17 09:18:18;;;;;;;;;;;;;;;21.68;60.37;99755.19;4334321;33;19988;-88
2022/05/17 09:20:43;;;;;;;;;;;;;;;21.63;60.37;99759.16;4334222;33;19992;-88
2022/05/17 09:23:08;;;;;;;;;;;;;;;21.60;60.36;99768.19;4347769;33;19987;-88
2022/05/17 09:25:47;;;;;;;;;;;;;;;21.69;60.37;99756.03;4334436;33;20005;-88
2022/05/17 09:28:23;;;;;;;;;;;;;;;21.64;60.37;99764.34;4334362;33;20021;-88
2022/05/17 09:30:48;;;;;;;;;;;;;;;21.57;60.37;99765.78;4322025;33;19994;-88
2022/05/17 09:33:15;;;;;;;;;;;;;;;21.68;60.37;99757.84;4334067;33;19984;-88
2022/05/17 09:35:42;;;;;;;;;;;;;;;21.68;60.37;99757.84;4347871;33;19998;-88
2022/05/17 09:38:07;;;;;;;;;;;;;;;21.95;60.39;99753.97;4334381;33;20003;-88
2022/05/17 09:40:35;;;;;;;;;;;;;;;22.15;60.39;99755.94;4334425;33;19986;-87
2022/05/17 09:43:02;;;;;;;;;;;;;;;22.19;60.39;99746.75;4347857;33;20030;-87
2022/05/17 09:45:38;;;;;;;;;;;;;;;22.27;60.40;99752.31;4335023;33;19988;-87
2022/05/17 09:48:04;;;;;;;;;;;;;;;22.36;60.41;99742.75;4333987;33;20047;-87
2022/05/17 09:53:15;;;;;;;;;;;;;;;22.32;60.40;99742.16;4336038;33;19990;-87
2022/05/17 09:55:43;;;;;;;;;;;;;;;22.16;60.39;99732.91;4333828;33;20010;-86
2022/05/17 09:58:09;;;;;;;;;;;;;;;22.03;60.39;99738.34;4347391;33;19992;-87
2022/05/17 10:00:34;;;;;;;;;;;;;;;22.22;60.39;99743.03;4321540;33;20029;-87
2022/05/17 10:03:06;;;;;;;;;;;;;;;22.41;60.41;99734.44;4347115;33;20273;-86
2022/05/17 10:05:35;;;;;;;;;;;;;;;22.55;60.40;99732.34;4333865;33;19995;-86
2022/05/17 10:08:02;;;;;;;;;;;;;;;22.56;60.42;99730.53;4348020;33;20054;-86
2022/05/17 10:10:35;;;;;;;;;;;;;;;22.75;60.42;99736.03;4349125;33;20026;-86
2022/05/17 10:13:03;;;;;;;;;;;;;;;22.75;60.42;99722.75;4349408;33;19998;-86
2022/05/17 10:15:29;;;;;;;;;;;;;;;22.90;60.43;99726.78;4335675;33;19995;-86
2022/05/17 10:17:55;;;;;;;;;;;;;;;22.89;60.43;99725.13;4335721;33;20344;-86
2022/05/17 10:20:23;;;;;;;;;;;;;;;23.01;60.43;99725.06;4335767;33;19976;-87
2022/05/17 10:22:51;;;;;;;;;;;;;;;23.15;60.44;99722.91;4335532;33;20047;-87
2022/05/17 10:25:22;;;;;;;;;;;;;;;23.37;60.45;99727.25;4335614;33;19995;-87
2022/05/17 10:27:52;;;;;;;;;;;;;;;23.25;60.44;99723.00;4335786;33;20017;-86
2022/05/17 10:30:25;;;;;;;;;;;;;;;23.38;60.46;99722.78;4335659;33;20037;-88
2022/05/17 10:32:59;;;;;;;;;;;;;;;23.48;60.46;99723.69;4335782;33;20558;-87
2022/05/17 10:35:27;;;;;;;;;;;;;;;23.52;60.46;99719.78;4335705;33;19987;-88
2022/05/17 10:38:02;;;;;;;;;;;;;;;23.61;60.46;99724.34;4349231;33;19987;-88
2022/05/17 10:40:31;;;;;;;;;;;;;;;23.64;60.46;99723.22;4349201;33;19997;-89
2022/05/17 10:42:57;;;;;;;;;;;;;;;23.59;60.47;99718.31;4335579;33;19988;-88
2022/05/17 10:45:23;;;;;;;;;;;;;;;23.63;60.46;99725.03;4349193;33;19991;-88
2022/05/17 10:47:48;;;;;;;;;;;;;;;23.68;60.47;99719.34;4335529;33;20003;-88
2022/05/17 10:50:23;;;;;;;;;;;;;;;24.02;60.49;99725.22;4335449;33;20007;-89
2022/05/17 10:52:55;;;;;;;;;;;;;;;24.16;60.49;99724.84;4349293;33;20014;-89
2022/05/17 10:55:23;;;;;;;;;;;;;;;24.22;60.50;99721.63;4362486;33;19983;-89
2022/05/17 10:57:57;;;;;;;;;;;;;;;24.10;60.48;99725.38;4340163;33;20364;-88
2022/05/17 11:00:25;;;;;;;;;;;;;;;23.97;60.48;99716.81;4323338;33;19998;-88
2022/05/17 11:03:14;;;;;;;;;;;;;;;24.07;60.49;99715.00;4335293;33;19979;-88
2022/05/17 11:05:45;;;;;;;;;;;;;;;23.97;60.49;99725.63;4329212;33;19996;-87
2022/05/17 11:08:10;;;;;;;;;;;;;;;23.96;60.48;99715.97;4348953;33;20001;-88
2022/05/17 11:10:54;;;;;;;;;;;;;;;24.14;60.50;99719.66;4322584;33;805761;-87
2022/05/17 11:13:37;;;;;;;;;;;;;;;24.09;60.49;99711.22;4334373;33;19996;-87
2022/05/17 11:16:21;;;;;;;;;;;;;;;24.30;60.50;99705.00;4320674;33;20022;-87
2022/05/17 11:18:56;;;;;;;;;;;;;;;24.42;60.50;99703.91;4334059;33;19991;-88
2022/05/17 11:21:38;;;;;;;;;;;;;;;24.53;60.52;99709.09;4332685;33;20334;-86
2022/05/17 11:24:06;;;;;;;;;;;;;;;24.44;60.51;99705.47;4320190;33;19984;-87
2022/05/17 11:26:37;;;;;;;;;;;;;;;24.48;60.51;99698.03;4334036;33;19992;-87
2022/05/17 11:29:10;;;;;;;;;;;;;;;24.58;60.51;99700.69;4333912;33;20372;-87
2022/05/17 11:31:48;;;;;;;;;;;;;;;24.48;60.50;99692.72;4333884;33;20388;-86
2022/05/17 11:34:22;;;;;;;;;;;;;;;24.64;60.52;99684.19;4332505;33;19990;-87
2022/05/17 11:36:48;;;;;;;;;;;;;;;24.79;60.52;99691.59;4332590;33;20043;-87
2022/05/17 11:39:32;;;;;;;;;;;;;;;24.84;60.53;99683.16;4332575;33;19992;-87
2022/05/17 11:42:10;;;;;;;;;;;;;;;24.93;60.53;99678.84;4332404;33;20274;-87
2022/05/17 11:44:42;;;;;;;;;;;;;;;24.99;60.54;99672.97;4332542;33;20404;-87
2022/05/17 11:47:26;;;;;;;;;;;;;;;24.82;60.53;99674.47;4332649;33;19992;-87
2022/05/17 11:49:52;;;;;;;;;;;;;;;24.94;60.53;99677.84;4332575;33;20016;-86
2022/05/17 11:52:21;;;;;;;;;;;;;;;24.87;60.53;99669.59;4332617;33;20015;-87
2022/05/17 11:54:47;;;;;;;;;;;;;;;24.69;60.52;99664.13;4332579;33;20013;-86
2022/05/17 11:57:38;;;;;;;;;;;;;;;24.88;60.53;99662.44;4332487;33;20015;-86
2022/05/17 12:00:11;;;;;;;;;;;;;;;24.89;60.52;99659.66;4332270;33;20018;-87
2022/05/17 12:02:42;;;;;;;;;;;;;;;25.11;60.54;99663.00;4332322;33;19979;-87
2022/05/17 12:05:11;;;;;;;;;;;;;;;25.25;60.55;99659.84;4332598;33;20511;-87
2022/05/17 12:07:36;;;;;;;;;;;;;;;25.15;60.55;99659.91;4333878;33;19991;-86
2022/05/17 12:10:09;;;;;;;;;;;;;;;25.20;60.54;99659.47;4332398;33;20247;-86
2022/05/17 12:12:38;;;;;;;;;;;;;;;25.34;60.55;99657.19;4332459;33;19972;-87
2022/05/17 12:15:03;;;;;;;;;;;;;;;25.61;60.56;99658.19;4333812;33;19975;-86
2022/05/17 12:17:38;;;;;;;;;;;;;;;25.78;60.58;99660.09;4333656;33;20348;-87
2022/05/17 12:20:26;;;;;;;;;;;;;;;25.83;60.57;99652.50;4333702;33;19992;-86
2022/05/17 12:22:56;;;;;;;;;;;;;;;25.57;60.56;99659.47;4340540;33;20045;-86
2022/05/17 12:25:23;;;;;;;;;;;;;;;25.49;60.56;99656.69;4320317;33;19976;-87
2022/05/17 12:27:48;;;;;;;;;;;;;;;25.29;60.55;99654.09;4320209;33;20003;-87
2022/05/17 12:33:06;;;;;;;;;;;;;;;25.13;60.54;99656.53;4332498;33;20011;-86
2022/05/17 12:35:31;;;;;;;;;;;;;;;25.30;60.56;99645.13;4333536;33;20026;-86
2022/05/17 12:37:57;;;;;;;;;;;;;;;25.48;60.56;99647.03;4332254;33;20003;-87
2022/05/17 12:43:12;;;;;;;;;;;;;;;25.43;60.56;99644.81;4333368;33;19995;-86
2022/05/17 12:45:41;;;;;;;;;;;;;;;25.31;60.55;99643.28;4333519;33;19998;-87
2022/05/17 12:48:11;;;;;;;;;;;;;;;25.31;60.55;99638.78;4319894;33;19996;-87
2022/05/17 12:50:40;;;;;;;;;;;;;;;25.29;60.55;99637.28;4336025;33;19982;-86
2022/05/17 12:53:09;;;;;;;;;;;;;;;25.34;60.55;99635.03;4321080;33;20063;-86
2022/05/17 12:55:34;;;;;;;;;;;;;;;25.27;60.55;99634.75;4332205;33;19984;-86
2022/05/17 12:58:10;;;;;;;;;;;;;;;25.18;60.55;99635.63;4333556;33;19980;-86
2022/05/17 13:00:35;;;;;;;;;;;;;;;25.18;60.55;99626.81;4332145;33;20058;-86
2022/05/17 13:03:02;;;;;;;;;;;;;;;24.77;60.53;99627.00;4331862;33;19991;-86
2022/05/17 13:05:43;;;;;;;;;;;;;;;24.58;60.51;99632.34;4332115;33;20034;-87